Latest Coastal Weather Observations for Holmes Reef

IDQ60701

Issued at 11:01 pm EST Thursday 19 January 2017 (issued every 10 minutes, with the page automatically refreshed every 10 minutes)

About coastal observations | Map of coastal stations | Coastal observations for QLD | Marine services | Other Formats
Station Details ID: 200732 Name: HOLMES REEF Lat: -16.47 Lon: 147.87 Height: 1.9 m
Data from the previous 72 hours. | See also: Recent months at Holmes Reef
Date/Time
EST
Temp
°C
Wind Pressure Rain since
9am
mm
Weather Cloud Vis
km
Sea
Height
m
Swell
Dir  Spd
kts
Gust
kts
hPa Trend Height
m
Period
s
Dir
19/11:00pm 28.5 ENE 5 6 1008.6 - - - - - - - - -
19/10:30pm 28.5 ENE 5 7 1008.5 - - - - - - - - -
19/10:15pm 28.6 ENE 6 - 1008.1 - - - - - - - - -
19/10:00pm 28.5 E 5 6 1008.6 - - - - - - - - -
19/09:30pm 28.6 E 4 7 1008.6 - - - - - - - - -
19/09:15pm 28.5 ESE 2 - 1008.4 - - - - - - - - -
19/09:00pm 28.5 CALM 0 2 1008.7 - - - - - - - - -
19/08:30pm 28.2 CALM 0 1 1008.5 - - - - - - - - -
19/08:15pm 28.1 CALM 0 - 1008.0 - - - - - - - - -
19/08:00pm 28.1 CALM 0 2 1008.2 - - - - - - - - -
19/07:30pm 27.8 ESE 4 5 1007.8 - - - - - - - - -
19/07:15pm 27.4 E 5 - 1007.5 - - - - - - - - -
19/07:00pm 27.9 E 11 13 1007.7 - - - - - - - - -
19/06:30pm 28.9 SE 8 9 1007.5 - - - - - - - - -
19/06:15pm 29.1 SSE 7 - 1007.1 - - - - - - - - -
19/06:00pm 28.9 SSE 8 10 1007.3 - - - - - - - - -
19/05:30pm 29.2 SSE 8 9 1007.2 - - - - - - - - -
19/05:15pm 29.5 SSE 8 - 1006.9 - - - - - - - - -
19/05:00pm 29.5 SSE 9 11 1007.1 - - - - - - - - -
19/04:30pm 28.9 SSE 8 9 1006.9 - - - - - - - - -
19/04:15pm 29.0 SSE 8 - 1006.7 - - - - - - - - -
19/04:00pm 29.0 SE 8 10 1006.9 - - - - - - - - -
19/03:30pm 29.5 SSE 8 10 1007.0 - - - - - - - - -
19/03:15pm 29.0 SSE 8 - 1006.9 - - - - - - - - -
19/03:00pm 29.1 SE 8 10 1007.3 - - - - - - - - -
19/02:30pm 29.6 SSE 8 11 1007.6 - - - - - - - - -
19/02:15pm 29.3 S 11 - 1007.3 - - - - - - - - -
19/02:00pm 29.0 SSE 9 11 1007.8 - - - - - - - - -
19/01:30pm 29.2 S 8 11 1008.2 - - - - - - - - -
19/01:15pm 29.2 S 9 - 1008.2 - - - - - - - - -
19/01:00pm 29.4 SSE 9 11 1008.7 - - - - - - - - -
19/12:30pm 29.2 S 9 11 1009.0 - - - - - - - - -
19/12:15pm 29.2 S 9 - 1008.9 - - - - - - - - -
19/12:00pm 29.2 S 9 11 1009.4 - - - - - - - - -
19/11:30am 29.4 S 9 11 1009.7 - - - - - - - - -
19/11:15am 29.5 S 9 - 1009.4 - - - - - - - - -
19/11:00am 29.4 S 9 11 1010.0 - - - - - - - - -
19/10:30am 29.3 S 11 13 1010.3 - - - - - - - - -
19/10:15am 29.2 S 12 - 1010.0 - - - - - - - - -
19/10:00am 29.3 SSE 12 13 1010.4 - - - - - - - - -
19/09:30am 29.2 S 10 12 1010.7 - - - - - - - - -
19/09:15am 29.4 S 10 - 1010.5 - - - - - - - - -
19/09:00am 29.3 S 9 11 1011.0 - - - - - - - - -
19/08:30am 29.4 S 9 11 1010.9 - - - - - - - - -
19/08:15am 29.4 S 10 - 1010.4 - - - - - - - - -
19/08:00am 29.2 S 9 11 1010.8 - - - - - - - - -
19/07:30am 29.0 S 11 13 1010.7 - - - - - - - - -
19/07:15am 29.3 S 10 - 1010.3 - - - - - - - - -
19/07:00am 28.9 S 11 13 1010.5 - - - - - - - - -
19/06:30am 28.7 S 10 12 1010.4 - - - - - - - - -
19/06:15am 28.3 S 10 - 1010.0 - - - - - - - - -
19/06:00am 28.3 S 9 11 1010.1 - - - - - - - - -
19/05:30am 28.2 S 9 11 1009.7 - - - - - - - - -
19/05:15am 28.2 S 8 - 1009.2 - - - - - - - - -
19/05:00am 28.2 S 9 10 1009.4 - - - - - - - - -
19/04:30am 28.2 S 9 11 1009.3 - - - - - - - - -
19/04:15am 28.2 S 8 - 1008.9 - - - - - - - - -
19/04:00am 28.2 S 8 11 1009.1 - - - - - - - - -
19/03:30am 28.2 S 9 10 1009.0 - - - - - - - - -
19/03:15am 28.2 S 8 - 1008.8 - - - - - - - - -
19/03:00am 28.2 S 8 10 1009.2 - - - - - - - - -
19/02:30am 28.2 S 7 8 1009.5 - - - - - - - - -
19/02:15am 28.2 S 7 - 1009.2 - - - - - - - - -
19/02:00am 28.2 S 7 8 1009.5 - - - - - - - - -
19/01:30am 28.2 S 6 7 1009.6 - - - - - - - - -
19/01:15am 28.2 S 7 - 1009.4 - - - - - - - - -
19/01:00am 28.2 SSE 7 8 1009.7 - - - - - - - - -
19/12:30am 28.2 SSE 7 8 1009.9 - - - - - - - - -
19/12:15am 28.2 SSE 6 - 1009.8 - - - - - - - - -
19/12:00am 28.3 SSE 5 7 1010.3 - - - - - - - - -
 
Date/Time
EST
Temp
°C
Wind Pressure Rain since
9am
mm
Weather Cloud Vis
km
Sea
Height
m
Swell
Dir  Spd
kts
Gust
kts
hPa Trend Height
m
Period
s
Dir
18/11:30pm 28.3 CALM 0 0 1010.6 - - - - - - - - -
18/11:15pm 28.4 CALM 0 - 1010.5 - - - - - - - - -
18/11:00pm 28.4 SSE 3 5 1011.0 - - - - - - - - -
18/10:30pm 28.4 CALM 0 3 1011.3 - - - - - - - - -
18/10:15pm 28.5 SSE 4 - 1010.9 - - - - - - - - -
18/10:00pm 28.5 SSE 4 6 1011.2 - - - - - - - - -
18/09:30pm 28.5 SE 5 6 1011.2 - - - - - - - - -
18/09:15pm 28.5 SE 4 - 1010.9 - - - - - - - - -
18/09:00pm 28.6 SE 4 5 1011.1 - - - - - - - - -
18/08:30pm 28.6 SE 6 8 1010.8 - - - - - - - - -
18/08:15pm 28.7 SE 6 - 1010.4 - - - - - - - - -
18/08:00pm 28.7 SE 6 8 1010.6 - - - - - - - - -
18/07:30pm 28.7 SE 8 10 1010.3 - - - - - - - - -
18/07:15pm 28.7 SE 8 - 1010.0 - - - - - - - - -
18/07:00pm 28.8 SE 8 9 1010.1 - - - - - - - - -
18/06:30pm 29.0 SE 7 8 1009.9 - - - - - - - - -
18/06:15pm 29.1 SE 9 - 1009.5 - - - - - - - - -
18/06:00pm 29.1 SSE 9 10 1009.7 - - - - - - - - -
18/05:30pm 29.1 SSE 8 10 1009.6 - - - - - - - - -
18/05:15pm 29.2 SSE 8 - 1009.2 - - - - - - - - -
18/05:00pm 29.2 SSE 8 10 1009.3 - - - - - - - - -
18/04:30pm 29.1 SSE 10 12 1009.2 - - - - - - - - -
18/04:15pm 28.9 SSE 11 - 1008.9 - - - - - - - - -
18/04:00pm 29.1 SSE 10 11 1009.2 - - - - - - - - -
18/03:30pm 29.0 SSE 10 13 1009.4 - - - - - - - - -
18/03:15pm 29.1 SSE 10 - 1009.2 - - - - - - - - -
18/03:00pm 29.2 SSE 10 12 1009.6 - - - - - - - - -
18/02:30pm 29.0 SE 9 10 1010.0 - - - - - - - - -
18/02:15pm 29.0 SSE 9 - 1009.9 - - - - - - - - -
18/02:00pm 29.5 SSE 8 10 1010.3 - - - - - - - - -
18/01:30pm 29.1 SE 8 10 1010.8 - - - - - - - - -
18/01:15pm 29.1 SSE 9 - 1010.8 - - - - - - - - -
18/01:00pm 29.0 SE 9 11 1011.2 - - - - - - - - -
18/12:30pm 29.2 SE 8 10 1011.4 - - - - - - - - -
18/12:15pm 29.1 SE 7 - 1011.3 - - - - - - - - -
18/12:00pm 29.1 SE 7 9 1011.8 - - - - - - - - -
18/11:30am 29.2 SE 6 8 1012.1 - - - - - - - - -
18/11:15am 29.2 SE 7 - 1012.0 - - - - - - - - -
18/11:00am 29.3 SE 8 10 1012.4 - - - - - - - - -
18/10:30am 29.3 ESE 7 9 1012.7 - - - - - - - - -
18/10:15am 29.4 ESE 7 - 1012.4 - - - - - - - - -
18/10:00am 29.3 ESE 7 8 1012.7 - - - - - - - - -
18/09:30am 29.2 E 7 9 1012.8 - - - - - - - - -
18/09:15am 29.3 ESE 8 - 1012.6 - - - - - - - - -
18/09:00am 29.3 ESE 7 9 1012.9 - - - - - - - - -
18/08:30am 29.1 E 6 7 1013.0 - - - - - - - - -
18/08:15am 28.9 E 7 - 1012.6 - - - - - - - - -
18/08:00am 29.1 E 8 10 1012.8 - - - - - - - - -
18/07:30am 29.0 ESE 7 8 1012.6 - - - - - - - - -
18/07:15am 29.0 ESE 7 - 1012.3 - - - - - - - - -
18/07:00am 29.0 ESE 8 10 1012.5 - - - - - - - - -
18/06:30am 28.8 ESE 9 10 1012.1 - - - - - - - - -
18/06:15am 28.5 ESE 9 - 1011.7 - - - - - - - - -
18/06:00am 28.3 ESE 10 11 1011.7 - - - - - - - - -
18/05:30am 28.4 ESE 11 13 1011.2 - - - - - - - - -
18/05:15am 28.4 E 8 - 1010.7 - - - - - - - - -
18/05:00am 28.5 E 7 8 1010.8 - - - - - - - - -
18/04:30am 28.4 ESE 8 10 1010.5 - - - - - - - - -
18/04:15am 28.5 ESE 8 - 1010.0 - - - - - - - - -
18/04:00am 28.3 ESE 6 9 1010.3 - - - - - - - - -
18/03:30am 27.3 E 6 12 1010.5 - - - - - - - - -
18/03:15am 26.4 E 18 - 1010.2 - - - - - - - - -
18/03:00am 28.5 ESE 11 12 1010.4 - - - - - - - - -
18/02:30am 28.5 ESE 11 13 1010.4 - - - - - - - - -
18/02:15am 28.5 ESE 13 - 1010.2 - - - - - - - - -
18/02:00am 28.5 ESE 12 14 1010.6 - - - - - - - - -
18/01:30am 28.6 ESE 12 14 1010.8 - - - - - - - - -
18/01:15am 28.5 ESE 11 - 1010.7 - - - - - - - - -
18/01:00am 28.5 E 12 14 1011.3 - - - - - - - - -
18/12:30am 28.6 ESE 13 15 1011.4 - - - - - - - - -
18/12:15am 28.5 ESE 13 - 1011.2 - - - - - - - - -
18/12:00am 28.5 ESE 13 15 1011.7 - - - - - - - - -
 
Date/Time
EST
Temp
°C
Wind Pressure Rain since
9am
mm
Weather Cloud Vis
km
Sea
Height
m
Swell
Dir  Spd
kts
Gust
kts
hPa Trend Height
m
Period
s
Dir
17/11:30pm 28.6 ESE 12 14 1012.3 - - - - - - - - -
17/11:15pm 28.7 ESE 12 - 1012.1 - - - - - - - - -
17/11:00pm 28.6 ESE 12 13 1012.6 - - - - - - - - -
17/10:30pm 28.7 ESE 12 15 1012.9 - - - - - - - - -
17/10:15pm 28.7 ESE 13 - 1012.5 - - - - - - - - -
17/10:00pm 28.8 ESE 13 15 1012.7 - - - - - - - - -
17/09:30pm 28.8 ESE 13 16 1012.5 - - - - - - - - -
17/09:15pm 28.7 ESE 14 - 1012.1 - - - - - - - - -
17/09:00pm 28.7 ESE 15 17 1012.2 - - - - - - - - -
17/08:30pm 28.5 ESE 15 18 1011.8 - - - - - - - - -
17/08:15pm 28.7 ESE 15 - 1011.4 - - - - - - - - -
17/08:00pm 28.8 ESE 14 16 1011.5 - - - - - - - - -
17/07:30pm 28.8 ESE 15 17 1011.1 - - - - - - - - -
17/07:15pm 28.8 SE 15 - 1010.5 - - - - - - - - -
17/07:00pm 28.7 SE 14 17 1010.8 - - - - - - - - -
17/06:30pm 28.7 SE 14 16 1010.5 - - - - - - - - -
17/06:15pm 28.6 SE 13 - 1010.2 - - - - - - - - -
17/06:00pm 28.7 SE 14 16 1010.4 - - - - - - - - -
17/05:30pm 28.8 ESE 12 14 1010.4 - - - - - - - - -
17/05:15pm 28.7 SE 13 - 1009.8 - - - - - - - - -
17/05:00pm 28.7 SE 13 14 1010.2 - - - - - - - - -
17/04:30pm 28.7 ESE 13 15 1010.1 - - - - - - - - -
17/04:15pm 28.6 ESE 13 - 1009.6 - - - - - - - - -
17/04:00pm 28.6 SE 12 14 1009.9 - - - - - - - - -
17/03:30pm 28.7 SE 9 10 1010.3 - - - - - - - - -
17/03:15pm 28.7 SE 9 - 1010.1 - - - - - - - - -
17/03:00pm 28.5 SE 9 11 1010.4 - - - - - - - - -
17/02:30pm 28.3 SE 10 12 1010.6 - - - - - - - - -
17/02:15pm 28.3 SE 9 - 1010.4 - - - - - - - - -
17/02:00pm 28.3 SE 10 11 1010.8 - - - - - - - - -
17/01:30pm 27.9 ESE 9 10 1011.4 - - - - - - - - -
17/01:15pm 27.8 SE 9 - 1011.4 - - - - - - - - -
17/01:00pm 27.8 SE 7 9 1012.0 - - - - - - - - -
17/12:30pm 27.5 ESE 9 11 1012.4 - - - - - - - - -
17/12:15pm 27.5 ESE 8 - 1012.2 - - - - - - - - -
17/12:00pm 27.8 ESE 7 10 1012.7 - - - - - - - - -
17/11:30am 28.5 ESE 4 6 1013.0 - - - - - - - - -
17/11:15am 28.7 ESE 5 - 1012.7 - - - - - - - - -
17/11:00am 29.0 ESE 5 6 1013.1 - - - - - - - - -
17/10:30am 30.0 SSE 1 4 1013.1 - - - - - - - - -
17/10:15am 29.5 SSE 5 - 1012.9 - - - - - - - - -
17/10:00am 28.9 SSE 7 10 1013.2 - - - - - - - - -
17/09:30am 29.4 CALM 0 0 1013.3 - - - - - - - - -
17/09:15am 28.8 CALM 0 - 1012.9 - - - - - - - - -
17/09:00am 28.5 CALM 0 0 1012.9 - - - - - - - - -
17/08:30am 28.6 NE 4 5 1012.5 - - - - - - - - -
17/08:15am 28.9 ENE 5 - 1012.0 - - - - - - - - -
17/08:00am 28.8 ENE 4 5 1012.2 - - - - - - - - -
17/07:30am 28.2 E 4 6 1012.0 - - - - - - - - -
17/07:15am 27.8 E 6 - 1011.7 - - - - - - - - -
17/07:00am 27.8 E 7 8 1012.1 - - - - - - - - -
17/06:30am 27.9 E 6 8 1011.7 - - - - - - - - -
17/06:15am 27.5 E 3 - 1011.2 - - - - - - - - -
17/06:00am 27.0 NNE 6 7 1011.4 - - - - - - - - -
17/05:30am 26.6 NNE 12 15 1010.8 - - - - - - - - -
17/05:15am 25.2 NE 17 - 1010.3 - - - - - - - - -
17/05:00am 26.7 ENE 13 20 1010.6 - - - - - - - - -
17/04:30am 26.9 CALM 0 0 1009.9 - - - - - - - - -
17/04:15am 26.8 CALM 0 - 1009.8 - - - - - - - - -
17/04:00am 26.9 CALM 0 0 1010.0 - - - - - - - - -
17/03:30am 26.7 CALM 0 0 1009.8 - - - - - - - - -
17/03:15am 26.8 NNW 5 - 1009.4 - - - - - - - - -
17/03:00am 26.8 NNW 5 7 1009.7 - - - - - - - - -
17/02:30am 26.7 N 8 11 1010.2 - - - - - - - - -
17/02:15am 26.6 N 8 - 1009.9 - - - - - - - - -
17/02:00am 26.5 N 7 9 1010.4 - - - - - - - - -
17/01:39am 27.3 NE 17 21 1010.2 - - - - - - - - -
17/01:30am 28.3 NE 7 8 1010.1 - - - - - - - - -
17/01:15am 28.3 NE 9 - 1009.9 - - - - - - - - -
17/01:00am 28.1 NE 10 12 1010.5 - - - - - - - - -
17/12:30am 28.6 E 9 11 1010.6 - - - - - - - - -
17/12:15am 28.6 E 10 - 1010.5 - - - - - - - - -
17/12:00am 28.6 E 12 14 1011.0 - - - - - - - - -
 
Date/Time
EST
Temp
°C
Wind Pressure Rain since
9am
mm
Weather Cloud Vis
km
Sea
Height
m
Swell
Dir  Spd
kts
Gust
kts
hPa Trend Height
m
Period
s
Dir
16/11:30pm 28.7 E 11 13 1011.4 - - - - - - - - -
16/11:15pm 28.8 ENE 12 - 1011.2 - - - - - - - - -

Other Formats:

Comma delimited format used in spreadsheet applications
http://www.bom.gov.au/fwo/IDQ60701/IDQ60701.94289.axf

JavaScript Object Notation format (JSON) in row-major order
http://www.bom.gov.au/fwo/IDQ60701/IDQ60701.94289.json